University of Wyoming, Wyoming
Current Conditions -  °F | °C
As of 2:53 AM on Sunday 25 Jan 2015 (Local Time) from KLAR Reporting Station
Clear Clear  
Wind Chill: 18°   Ceiling: Unl
Heat Index: 28°   Visibility: 10mi
Dew Point: 20°   Wind: 12mph
Humidity: 72%   Direction: 300°WNW
Pressure: 30.16"   Gusts: NA
Location:  41.4218°N, 105.605°W
Report Text: KLAR 250953Z AUTO 30010KT 10SM CLR M02/M07 A3016 RMK AO2 SLP208 T10221067
Loading
Personal Weather Stations






























Interactive Weather Map New forecast layout! Learn more

10-Day Weather Forecast

Advertisements
Track Severe Weather on mobile